Time;durP1;ratioP1;P1;durP2;ratioP2;P2;SDS_P1;SDS_P2;PMS_P1;PMS_P2;Temp;Humidity;BMP_temperature;BMP_pressure;BME280_temperature;BME280_humidity;BME280_pressure;Samples;Min_cycle;Max_cycle;Signal;HPM_P1;HPM_P2
2023/04/02 00:00:26;;;;;;;4.20;1.60;;;;;9.50;95383.00;;;;8408811;28;20196;-74
2023/04/02 00:04:36;;;;;;;1.47;1.37;;;;;9.50;95389.00;;;;8394456;28;20264;-74
2023/04/02 00:08:40;;;;;;;1.95;1.33;;;;;9.40;95389.00;;;;8408758;28;20234;-75
2023/04/02 00:13:00;;;;;;;3.43;1.47;;;;;9.40;95386.00;;;;8396970;28;20205;-74
2023/04/02 00:17:06;;;;;;;3.10;1.60;;;;;9.30;95404.00;;;;8390896;28;20553;-74
2023/04/02 00:21:13;;;;;;;1.60;1.60;;;;;9.40;95403.00;;;;8405847;28;20206;-74
2023/04/02 00:25:16;;;;;;;1.43;1.33;;;;;9.40;95399.00;;;;8411399;28;20261;-74
2023/04/02 00:29:20;;;;;;;2.03;1.92;;;;;9.50;95399.00;;;;8414038;28;20223;-74
2023/04/02 00:33:28;;;;;;;1.50;1.40;;;;;9.50;95402.00;;;;8421344;28;20196;-74
2023/04/02 00:37:41;;;;;;;2.13;1.50;;;;;9.50;95400.00;;;;8421620;28;20211;-74
2023/04/02 00:41:46;;;;;;;1.58;1.45;;;;;9.40;95400.00;;;;8416928;28;20224;-75
2023/04/02 00:46:01;;;;;;;2.25;1.45;;;;;9.40;95408.00;;;;8409266;28;20200;-75
2023/04/02 00:50:23;;;;;;;2.28;1.50;;;;;9.40;95398.00;;;;8411829;28;20212;-74
2023/04/02 00:54:32;;;;;;;4.38;1.73;;;;;9.40;95401.00;;;;8406114;28;20278;-74
2023/04/02 00:58:39;;;;;;;2.10;1.50;;;;;9.40;95410.00;;;;8401126;28;20217;-75
2023/04/02 01:02:43;;;;;;;4.32;1.70;;;;;9.40;95412.00;;;;8404672;28;20227;-74
2023/04/02 01:06:52;;;;;;;1.65;1.20;;;;;9.40;95408.00;;;;8405969;28;20233;-74
2023/04/02 01:11:07;;;;;;;4.97;1.40;;;;;9.40;95417.00;;;;8398018;28;20951;-74
2023/04/02 01:15:16;;;;;;;4.00;1.45;;;;;9.40;95422.00;;;;8391569;28;20661;-74
2023/04/02 01:19:49;;;;;;;1.70;1.60;;;;;9.40;95423.00;;;;8390087;28;20253;-74
2023/04/02 01:24:02;;;;;;;4.40;1.55;;;;;9.40;95419.00;;;;8403495;28;20253;-74
2023/04/02 01:28:13;;;;;;;2.70;1.40;;;;;9.40;95423.00;;;;8393397;28;20312;-74
2023/04/02 01:32:21;;;;;;;3.03;1.50;;;;;9.30;95430.00;;;;8399849;28;20196;-74
2023/04/02 01:36:35;;;;;;;2.60;1.40;;;;;9.30;95428.00;;;;8396441;28;20195;-74
2023/04/02 01:40:47;;;;;;;2.35;1.30;;;;;9.30;95431.00;;;;8388734;28;20200;-74
2023/04/02 01:44:59;;;;;;;1.52;1.20;;;;;9.10;95429.00;;;;8393218;28;20203;-74
2023/04/02 01:49:12;;;;;;;3.60;1.50;;;;;9.10;95443.00;;;;8403901;28;20626;-73
2023/04/02 01:53:17;;;;;;;2.30;1.60;;;;;9.10;95434.00;;;;8389378;28;20200;-73
2023/04/02 01:57:22;;;;;;;4.37;1.80;;;;;9.10;95443.00;;;;8401029;28;20315;-73
2023/04/02 02:01:29;;;;;;;8.40;1.90;;;;;9.00;95440.00;;;;8396464;28;20549;-73
2023/04/02 02:05:34;;;;;;;4.73;1.70;;;;;9.00;95440.00;;;;8389751;28;20253;-74
2023/04/02 02:09:38;;;;;;;4.20;1.50;;;;;9.00;95444.00;;;;8394178;28;20249;-73
2023/04/02 02:13:46;;;;;;;1.70;1.60;;;;;9.10;95449.00;;;;8407894;28;20208;-73
2023/04/02 02:17:51;;;;;;;2.90;1.60;;;;;9.10;95454.00;;;;8401206;28;20200;-73
2023/04/02 02:21:59;;;;;;;3.42;1.70;;;;;9.10;95459.00;;;;8401943;28;20199;-73
2023/04/02 02:26:06;;;;;;;2.20;1.63;;;;;9.10;95462.00;;;;8407701;28;20211;-74
2023/04/02 02:30:15;;;;;;;2.70;1.70;;;;;9.10;95463.00;;;;8406210;28;20228;-74
2023/04/02 02:34:22;;;;;;;6.43;1.92;;;;;9.10;95475.00;;;;8403557;28;20196;-74
2023/04/02 02:38:39;;;;;;;1.73;1.60;;;;;9.10;95480.00;;;;8401457;28;20210;-73
2023/04/02 02:42:48;;;;;;;2.07;1.80;;;;;9.10;95484.00;;;;8402989;28;20195;-74
2023/04/02 02:46:53;;;;;;;1.75;1.65;;;;;9.20;95483.00;;;;8404472;28;20247;-74
2023/04/02 02:50:58;;;;;;;2.15;1.70;;;;;9.20;95487.00;;;;8395189;28;20663;-73
2023/04/02 02:55:06;;;;;;;2.47;1.65;;;;;9.20;95495.00;;;;8394025;28;20732;-74
2023/04/02 02:59:11;;;;;;;3.60;1.83;;;;;9.20;95506.00;;;;8391478;28;20233;-72
2023/04/02 03:03:18;;;;;;;3.75;1.60;;;;;9.20;95501.00;;;;8384447;22;20259;-73
2023/04/02 03:07:25;;;;;;;1.57;1.50;;;;;9.20;95502.00;;;;8333515;28;20228;-73
2023/04/02 03:11:36;;;;;;;2.13;1.70;;;;;9.20;95506.00;;;;8352903;28;20227;-73
2023/04/02 03:15:49;;;;;;;5.28;1.60;;;;;9.10;95519.00;;;;8348068;28;20201;-73
2023/04/02 03:19:58;;;;;;;2.00;1.90;;;;;9.10;95510.00;;;;8344213;28;20193;-73
2023/04/02 03:24:09;;;;;;;3.78;1.70;;;;;9.10;95517.00;;;;8349243;28;20284;-73
2023/04/02 03:28:22;;;;;;;2.38;2.00;;;;;9.10;95527.00;;;;8338418;28;20278;-73
2023/04/02 03:32:31;;;;;;;4.18;2.10;;;;;9.00;95522.00;;;;8352697;28;20201;-72
2023/04/02 03:36:42;;;;;;;4.30;2.23;;;;;9.00;95527.00;;;;8349710;28;20204;-74
2023/04/02 03:40:58;;;;;;;4.93;2.30;;;;;9.10;95526.00;;;;8347314;28;20197;-73
2023/04/02 03:45:14;;;;;;;3.27;2.33;;;;;9.00;95521.00;;;;8344963;28;20207;-73
2023/04/02 03:49:23;;;;;;;5.07;2.10;;;;;9.10;95530.00;;;;8349146;28;20220;-73
2023/04/02 03:53:31;;;;;;;3.47;2.28;;;;;9.10;95539.00;;;;8331458;28;20291;-76
2023/04/02 03:57:42;;;;;;;4.78;2.70;;;;;9.10;95538.00;;;;8346758;28;20633;-74
2023/04/02 04:01:54;;;;;;;3.92;2.95;;;;;9.10;95538.00;;;;8344672;28;20227;-75
2023/04/02 04:06:05;;;;;;;3.67;3.05;;;;;9.00;95544.00;;;;8384065;28;20660;-73
2023/04/02 04:10:16;;;;;;;3.43;3.10;;;;;9.10;95551.00;;;;8386366;28;20224;-73
2023/04/02 04:14:32;;;;;;;3.42;2.70;;;;;9.00;95554.00;;;;8368859;28;20200;-73
2023/04/02 04:18:43;;;;;;;5.47;3.30;;;;;9.00;95571.00;;;;8388801;28;20282;-75
2023/04/02 04:22:48;;;;;;;4.60;3.00;;;;;9.00;95566.00;;;;8369595;28;20197;-74
2023/04/02 04:26:56;;;;;;;3.75;2.90;;;;;9.00;95573.00;;;;8386963;28;20208;-75
2023/04/02 04:31:03;;;;;;;3.33;2.83;;;;;9.00;95576.00;;;;8386393;28;20231;-73
2023/04/02 04:35:17;;;;;;;4.75;2.60;;;;;9.00;95587.00;;;;8384785;28;20798;-74
2023/04/02 04:39:30;;;;;;;6.90;2.63;;;;;9.00;95591.00;;;;8385667;28;20197;-74
2023/04/02 04:43:42;;;;;;;2.78;2.50;;;;;9.00;95602.00;;;;8387566;28;20242;-74
2023/04/02 04:47:52;;;;;;;4.03;2.60;;;;;9.00;95605.00;;;;8385389;28;20239;-74
2023/04/02 04:52:07;;;;;;;3.33;2.80;;;;;9.00;95605.00;;;;8386917;28;20235;-73
2023/04/02 04:56:22;;;;;;;3.97;2.50;;;;;9.00;95612.00;;;;8385767;28;21025;-73
2023/04/02 05:00:33;;;;;;;3.80;2.80;;;;;9.10;95618.00;;;;8369186;28;20254;-74
2023/04/02 05:04:38;;;;;;;4.55;2.45;;;;;9.10;95620.00;;;;8385074;28;20334;-74
2023/04/02 05:08:48;;;;;;;2.83;2.50;;;;;9.10;95618.00;;;;8392498;28;20233;-72
2023/04/02 05:13:07;;;;;;;2.33;2.10;;;;;9.10;95628.00;;;;8389359;28;20291;-74
2023/04/02 05:17:17;;;;;;;2.33;1.98;;;;;9.20;95628.00;;;;8388801;28;20199;-73
2023/04/02 05:21:32;;;;;;;2.10;2.00;;;;;9.10;95630.00;;;;8386149;28;20267;-73
2023/04/02 05:25:51;;;;;;;2.83;2.17;;;;;9.10;95638.00;;;;8380927;28;20626;-73
2023/04/02 05:30:00;;;;;;;4.25;1.92;;;;;9.20;95645.00;;;;8381452;28;20281;-72
2023/04/02 05:34:04;;;;;;;2.15;2.05;;;;;9.30;95647.00;;;;8383563;28;20208;-73
2023/04/02 05:38:08;;;;;;;2.42;2.22;;;;;9.30;95654.00;;;;8381335;28;20610;-72
2023/04/02 05:42:19;;;;;;;5.65;1.95;;;;;9.20;95658.00;;;;8378086;28;20204;-73
2023/04/02 05:46:28;;;;;;;1.67;1.67;;;;;9.30;95659.00;;;;8383620;28;20194;-73
2023/04/02 05:50:36;;;;;;;2.03;1.93;;;;;9.20;95661.00;;;;8381581;28;20323;-73
2023/04/02 05:54:48;;;;;;;2.20;2.10;;;;;9.20;95665.00;;;;8380986;28;20208;-73
2023/04/02 05:58:58;;;;;;;4.10;2.10;;;;;9.20;95675.00;;;;8378915;28;20336;-72
2023/04/02 06:03:08;;;;;;;4.22;2.00;;;;;9.30;95675.00;;;;8365244;28;20227;-73
2023/04/02 06:07:17;;;;;;;3.38;2.17;;;;;9.30;95682.00;;;;8382233;28;20209;-74
2023/04/02 06:11:24;;;;;;;2.05;1.95;;;;;9.30;95680.00;;;;8382942;28;20262;-74
2023/04/02 06:15:35;;;;;;;2.00;1.90;;;;;9.30;95679.00;;;;8378628;28;20951;-74
2023/04/02 06:19:39;;;;;;;2.08;1.92;;;;;9.30;95693.00;;;;8380118;28;20224;-75
2023/04/02 06:23:53;;;;;;;2.13;2.03;;;;;9.40;95694.00;;;;8383104;28;20546;-74
2023/04/02 06:28:13;;;;;;;2.30;2.10;;;;;9.40;95700.00;;;;8380820;28;20273;-75
2023/04/02 06:32:23;;;;;;;2.67;2.47;;;;;9.40;95702.00;;;;8383936;28;20234;-75
2023/04/02 06:36:27;;;;;;;2.80;2.60;;;;;9.50;95714.00;;;;8393834;28;20249;-75
2023/04/02 06:40:42;;;;;;;2.33;2.20;;;;;9.50;95717.00;;;;8381243;28;20569;-75
2023/04/02 06:44:47;;;;;;;2.50;2.30;;;;;9.60;95727.00;;;;8358924;28;20662;-74
2023/04/02 06:48:56;;;;;;;2.58;2.38;;;;;9.60;95731.00;;;;8376736;28;20229;-74
2023/04/02 06:53:05;;;;;;;4.88;2.13;;;;;9.70;95736.00;;;;8375620;28;20674;-74
2023/04/02 06:57:14;;;;;;;2.40;2.20;;;;;9.80;95740.00;;;;8372065;28;20197;-74
2023/04/02 07:01:22;;;;;;;2.53;2.10;;;;;9.90;95749.00;;;;8379370;28;20638;-74
2023/04/02 07:05:27;;;;;;;3.40;2.20;;;;;10.10;95753.00;;;;8381610;28;20863;-74
2023/04/02 07:09:31;;;;;;;2.00;1.90;;;;;10.10;95760.00;;;;8377913;28;20306;-74
2023/04/02 07:13:36;;;;;;;1.95;1.85;;;;;10.10;95762.00;;;;8379725;28;20205;-74
2023/04/02 07:17:40;;;;;;;1.92;1.83;;;;;10.20;95761.00;;;;8375042;28;20204;-73
2023/04/02 07:21:46;;;;;;;1.70;1.63;;;;;10.30;95768.00;;;;8368322;28;20229;-72
2023/04/02 07:25:51;;;;;;;1.50;1.50;;;;;10.40;95773.00;;;;8373029;28;20676;-72
2023/04/02 07:29:55;;;;;;;2.00;1.88;;;;;10.20;95777.00;;;;8368769;28;20228;-73
2023/04/02 07:34:00;;;;;;;1.65;1.55;;;;;10.10;95783.00;;;;8387015;28;20711;-73
2023/04/02 07:38:07;;;;;;;2.95;1.75;;;;;10.10;95787.00;;;;8376700;28;20281;-73
2023/04/02 07:42:10;;;;;;;2.20;2.00;;;;;10.00;95792.00;;;;8370759;28;20200;-73
2023/04/02 07:46:16;;;;;;;1.90;1.80;;;;;10.10;95799.00;;;;8380834;28;20699;-72
2023/04/02 07:50:20;;;;;;;2.00;1.85;;;;;10.10;95800.00;;;;8386286;28;20645;-73
2023/04/02 07:54:29;;;;;;;2.25;2.13;;;;;10.20;95813.00;;;;8383235;28;20759;-72
2023/04/02 07:58:34;;;;;;;2.17;2.05;;;;;10.30;95817.00;;;;8389284;28;20196;-73
2023/04/02 08:02:37;;;;;;;2.45;2.10;;;;;10.30;95820.00;;;;8382274;28;20783;-73
2023/04/02 08:06:45;;;;;;;2.40;2.20;;;;;10.40;95831.00;;;;8375535;28;20198;-73
2023/04/02 08:10:51;;;;;;;3.25;2.20;;;;;10.40;95837.00;;;;8385602;28;20234;-73
2023/04/02 08:14:58;;;;;;;3.22;2.28;;;;;10.50;95840.00;;;;8388516;28;20900;-75
2023/04/02 08:19:07;;;;;;;2.40;2.10;;;;;10.50;95839.00;;;;8384678;28;20723;-74
2023/04/02 08:23:15;;;;;;;2.17;2.00;;;;;10.60;95854.00;;;;8387243;28;20316;-74
2023/04/02 08:27:23;;;;;;;2.30;2.10;;;;;10.70;95850.00;;;;8369479;28;20861;-74
2023/04/02 08:31:29;;;;;;;2.40;2.20;;;;;10.80;95861.00;;;;8383351;28;21835;-74
2023/04/02 08:35:32;;;;;;;2.42;2.30;;;;;10.70;95861.00;;;;8361329;28;20815;-74
2023/04/02 08:39:40;;;;;;;2.45;2.25;;;;;10.70;95868.00;;;;8371631;28;20291;-73
2023/04/02 08:44:07;;;;;;;3.10;2.53;;;;;10.90;95861.00;;;;8362680;28;20203;-72
2023/04/02 08:48:15;;;;;;;3.42;2.00;;;;;11.10;95871.00;;;;8384949;28;20207;-71
2023/04/02 08:52:23;;;;;;;5.88;2.78;;;;;11.10;95877.00;;;;8387949;28;20274;-74
2023/04/02 08:56:32;;;;;;;2.13;2.03;;;;;11.00;95881.00;;;;8378956;28;20208;-75
2023/04/02 09:00:41;;;;;;;1.92;1.83;;;;;10.90;95885.00;;;;8383741;28;20213;-75
2023/04/02 09:04:45;;;;;;;1.70;1.60;;;;;10.80;95882.00;;;;8386662;28;20289;-73
2023/04/02 09:08:51;;;;;;;1.80;1.70;;;;;10.70;95898.00;;;;8384595;28;20200;-73
2023/04/02 09:12:57;;;;;;;2.10;1.83;;;;;10.70;95900.00;;;;8381946;28;20228;-73
2023/04/02 09:17:03;;;;;;;2.35;2.15;;;;;10.70;95903.00;;;;8388681;28;20205;-73
2023/04/02 09:21:31;;;;;;;5.90;2.00;;;;;10.60;95904.00;;;;8393601;28;20208;-73
2023/04/02 09:25:43;;;;;;;2.20;2.10;;;;;10.70;95914.00;;;;8393550;28;20664;-73
2023/04/02 09:29:59;;;;;;;2.67;2.45;;;;;10.70;95912.00;;;;8371561;28;20998;-75
2023/04/02 09:34:28;;;;;;;2.40;2.20;;;;;10.70;95919.00;;;;8380948;28;20203;-72
2023/04/02 09:38:31;;;;;;;3.88;2.50;;;;;10.90;95935.00;;;;8375676;28;20202;-73
2023/04/02 09:42:37;;;;;;;2.47;2.28;;;;;11.00;95931.00;;;;8359098;28;20199;-72
2023/04/02 09:46:48;;;;;;;2.20;2.10;;;;;11.10;95938.00;;;;8362391;28;20203;-73
2023/04/02 09:51:19;;;;;;;2.35;2.25;;;;;11.20;95948.00;;;;8373061;28;20862;-74
2023/04/02 09:55:27;;;;;;;2.70;2.50;;;;;11.30;95951.00;;;;8372210;28;20693;-74
2023/04/02 09:59:30;;;;;;;2.15;2.05;;;;;11.20;95956.00;;;;8378148;28;20201;-75
2023/04/02 10:03:35;;;;;;;1.23;1.23;;;;;10.90;95971.00;;;;8343438;28;20250;-77
2023/04/02 10:07:43;;;;;;;2.97;1.25;;;;;10.40;95983.00;;;;8370623;28;20200;-72
2023/04/02 10:11:47;;;;;;;1.33;1.33;;;;;10.20;95971.00;;;;8368895;28;20310;-74
2023/04/02 10:15:59;;;;;;;2.70;1.70;;;;;10.00;95987.00;;;;8357541;28;20642;-73
2023/04/02 10:20:10;;;;;;;2.25;2.15;;;;;9.80;95987.00;;;;8350279;28;20272;-74
2023/04/02 10:24:20;;;;;;;2.28;2.17;;;;;9.80;95995.00;;;;8351396;28;20216;-74
2023/04/02 10:28:32;;;;;;;1.63;1.30;;;;;9.80;95985.00;;;;8370763;28;20222;-75
2023/04/02 10:32:43;;;;;;;1.63;1.52;;;;;9.80;96007.00;;;;8382030;28;20231;-74
2023/04/02 10:36:50;;;;;;;1.30;1.30;;;;;9.70;95999.00;;;;8372841;28;20634;-75
2023/04/02 10:41:00;;;;;;;1.58;1.48;;;;;9.60;96011.00;;;;8374421;28;20265;-76
2023/04/02 10:45:42;;;;;;;1.70;1.60;;;;;9.70;96018.00;;;;8371646;28;20193;-73
2023/04/02 10:50:21;;;;;;;2.03;1.70;;;;;9.80;96029.00;;;;8389457;28;20310;-76
2023/04/02 10:54:41;;;;;;;1.45;1.35;;;;;9.60;96042.00;;;;8398660;28;20205;-76
2023/04/02 10:58:57;;;;;;;3.70;1.98;;;;;9.40;96051.00;;;;8398193;28;20250;-76
2023/04/02 11:03:05;;;;;;;2.03;1.50;;;;;9.30;96052.00;;;;8398636;28;20225;-75
2023/04/02 11:07:17;;;;;;;1.53;1.53;;;;;9.30;96058.00;;;;8397732;28;20644;-74
2023/04/02 11:11:23;;;;;;;2.47;1.40;;;;;9.30;96059.00;;;;8397693;28;20219;-74
2023/04/02 11:15:30;;;;;;;1.60;1.50;;;;;9.40;96076.00;;;;8398298;28;20201;-76
2023/04/02 11:19:40;;;;;;;1.80;1.70;;;;;9.40;96066.00;;;;8397359;28;20275;-73
2023/04/02 11:23:58;;;;;;;1.70;1.60;;;;;9.60;96075.00;;;;8380992;28;20196;-74
2023/04/02 11:28:16;;;;;;;1.70;1.60;;;;;9.80;96080.00;;;;8396910;28;20192;-73
2023/04/02 11:32:34;;;;;;;3.08;1.83;;;;;9.90;96079.00;;;;8397703;28;20227;-73
2023/04/02 11:37:02;;;;;;;1.10;1.10;;;;;9.70;96081.00;;;;8397794;28;20196;-74
2023/04/02 11:41:07;;;;;;;3.87;3.57;;;;;9.50;96086.00;;;;8397298;28;20196;-73
2023/04/02 11:45:54;;;;;;;1.60;1.57;;;;;9.70;96099.00;;;;8398164;28;20200;-73
2023/04/02 11:50:06;;;;;;;2.00;1.80;;;;;9.70;96103.00;;;;8396947;28;20249;-72
2023/04/02 11:54:23;;;;;;;1.83;1.73;;;;;9.80;96114.00;;;;8398506;28;20215;-75
2023/04/02 11:58:49;;;;;;;1.23;1.23;;;;;10.00;96124.00;;;;8397417;28;20204;-76
2023/04/02 12:03:15;;;;;;;2.80;1.50;;;;;9.80;96123.00;;;;8379536;28;20665;-76
2023/04/02 12:07:54;;;;;;;1.83;1.73;;;;;9.70;96129.00;;;;8396644;28;20232;-76
2023/04/02 12:11:59;;;;;;;2.75;2.47;;;;;9.60;96132.00;;;;8397489;28;20247;-76
2023/04/02 12:16:05;;;;;;;1.77;1.67;;;;;9.40;96144.00;;;;8396727;28;20587;-77
2023/04/02 12:20:20;;;;;;;1.50;1.50;;;;;9.10;96144.00;;;;8396124;28;20192;-77
2023/04/02 12:24:30;;;;;;;1.50;1.50;;;;;9.00;96145.00;;;;8402056;28;20253;-72
2023/04/02 12:28:36;;;;;;;2.60;2.17;;;;;8.90;96154.00;;;;8405095;28;20192;-77
2023/04/02 12:32:40;;;;;;;2.30;2.10;;;;;9.10;96158.00;;;;8401869;28;20269;-76
2023/04/02 12:36:55;;;;;;;2.42;2.30;;;;;9.30;96177.00;;;;8403119;28;20192;-76
2023/04/02 12:41:02;;;;;;;2.73;2.53;;;;;9.50;96174.00;;;;8402763;28;20196;-77
2023/04/02 12:45:24;;;;;;;5.03;3.30;;;;;9.90;96179.00;;;;8402734;28;20555;-77
2023/04/02 12:49:36;;;;;;;2.33;2.22;;;;;10.00;96182.00;;;;8402408;28;20192;-77
2023/04/02 12:53:52;;;;;;;3.05;2.08;;;;;10.00;96188.00;;;;8401923;28;20225;-77
2023/04/02 12:57:58;;;;;;;2.30;2.10;;;;;9.90;96186.00;;;;8385960;28;20222;-78
2023/04/02 13:02:19;;;;;;;3.10;2.85;;;;;10.10;96192.00;;;;8401690;28;20230;-78
2023/04/02 13:06:29;;;;;;;2.28;2.17;;;;;10.00;96197.00;;;;8401815;28;20244;-78
2023/04/02 13:10:34;;;;;;;3.00;2.80;;;;;9.80;96195.00;;;;8401395;28;20180;-79
2023/04/02 13:14:39;;;;;;;3.22;2.92;;;;;9.80;96205.00;;;;8401833;28;20611;-80
2023/04/02 13:18:46;;;;;;;3.80;3.10;;;;;9.90;96204.00;;;;8384517;28;20625;-79
2023/04/02 13:22:49;;;;;;;2.73;2.50;;;;;10.00;96212.00;;;;8402011;28;20635;-78
2023/04/02 13:26:56;;;;;;;2.63;2.43;;;;;9.90;96219.00;;;;8400622;28;20228;-77
2023/04/02 13:31:03;;;;;;;2.63;2.42;;;;;9.80;96219.00;;;;8401565;28;20679;-77
2023/04/02 13:35:08;;;;;;;3.87;3.57;;;;;9.80;96229.00;;;;8399930;28;20572;-76
2023/04/02 13:39:20;;;;;;;4.40;4.07;;;;;10.10;96235.00;;;;8401479;28;20181;-76
2023/04/02 13:43:23;;;;;;;3.95;3.60;;;;;10.30;96227.00;;;;8400643;28;20202;-75
2023/04/02 13:47:28;;;;;;;4.90;4.07;;;;;10.40;96237.00;;;;8400636;28;20193;-76
2023/04/02 13:51:36;;;;;;;4.07;3.78;;;;;10.20;96238.00;;;;8400855;28;20562;-75
2023/04/02 13:55:42;;;;;;;4.30;3.90;;;;;9.80;96239.00;;;;8399729;28;20195;-76
2023/04/02 13:59:45;;;;;;;3.80;3.50;;;;;9.50;96254.00;;;;8400049;28;20189;-76
2023/04/02 14:03:56;;;;;;;4.03;3.60;;;;;9.10;96245.00;;;;8400605;28;20745;-77
2023/04/02 14:08:11;;;;;;;3.70;3.40;;;;;8.70;96257.00;;;;8400270;28;20265;-78
2023/04/02 14:12:21;;;;;;;5.47;3.93;;;;;8.50;96264.00;;;;8400089;28;20208;-78
2023/04/02 14:16:41;;;;;;;5.15;4.65;;;;;8.40;96272.00;;;;8382183;28;20204;-79
2023/04/02 14:20:55;;;;;;;6.00;5.00;;;;;8.30;96271.00;;;;8399663;28;20207;-80
2023/04/02 14:25:13;;;;;;;4.60;4.20;;;;;8.20;96291.00;;;;8399055;28;20188;-77
2023/04/02 14:29:23;;;;;;;8.30;4.70;;;;;7.90;96280.00;;;;8392935;28;20556;-78
2023/04/02 14:33:44;;;;;;;5.43;4.43;;;;;7.80;96281.00;;;;8400204;28;20208;-78
2023/04/02 14:38:00;;;;;;;7.00;5.03;;;;;7.70;96289.00;;;;8399049;28;20617;-78
2023/04/02 14:42:12;;;;;;;7.47;5.20;;;;;7.70;96298.00;;;;8398976;28;20188;-79
2023/04/02 14:46:18;;;;;;;8.83;6.57;;;;;7.70;96303.00;;;;8398120;28;20196;-80
2023/04/02 14:50:26;;;;;;;6.23;4.33;;;;;7.70;96306.00;;;;8399470;28;20288;-82
2023/04/02 14:54:34;;;;;;;7.27;5.60;;;;;7.70;96305.00;;;;8397866;28;20219;-82
2023/04/02 14:58:42;;;;;;;7.47;5.73;;;;;7.70;96312.00;;;;8398431;28;20176;-82
2023/04/02 15:02:48;;;;;;;8.37;5.80;;;;;7.70;96321.00;;;;8398858;28;20669;-81
2023/04/02 15:06:56;;;;;;;7.43;5.83;;;;;7.70;96328.00;;;;8396113;28;20188;-82
2023/04/02 15:11:10;;;;;;;11.03;7.67;;;;;7.60;96333.00;;;;8397652;28;20196;-83
2023/04/02 15:15:25;;;;;;;9.87;7.33;;;;;7.60;96343.00;;;;8397547;28;20631;-87
2023/04/02 15:19:42;;;;;;;10.17;6.13;;;;;7.60;96351.00;;;;8398037;28;20180;-85
2023/04/02 15:23:55;;;;;;;8.97;5.27;;;;;7.60;96340.00;;;;8397165;28;20192;-85
2023/04/02 15:28:13;;;;;;;8.00;6.20;;;;;7.50;96357.00;;;;8396587;28;20208;-84
2023/04/02 15:32:38;;;;;;;7.93;5.70;;;;;7.40;96361.00;;;;8397167;28;20220;-85
2023/04/02 15:37:03;;;;;;;7.47;4.80;;;;;7.40;96365.00;;;;8396962;28;20199;-82
2023/04/02 15:41:14;;;;;;;6.27;4.97;;;;;7.30;96361.00;;;;8397106;28;20191;-80
2023/04/02 15:45:35;;;;;;;5.90;4.70;;;;;7.30;96373.00;;;;8397110;28;20593;-79
2023/04/02 15:49:43;;;;;;;5.33;4.43;;;;;7.30;96373.00;;;;8397959;28;20183;-78
2023/04/02 15:53:57;;;;;;;7.80;4.90;;;;;7.30;96383.00;;;;8396683;28;20316;-77
2023/04/02 15:58:14;;;;;;;6.27;5.00;;;;;7.30;96387.00;;;;8381826;28;20196;-78
2023/04/02 16:02:53;;;;;;;8.23;5.10;;;;;7.20;96385.00;;;;8403467;28;20227;-76
2023/04/02 16:07:19;;;;;;;9.70;5.30;;;;;7.20;96389.00;;;;8386817;28;20625;-77
2023/04/02 16:11:22;;;;;;;6.83;4.53;;;;;7.20;96393.00;;;;8403265;28;20227;-76
2023/04/02 16:15:30;;;;;;;7.40;4.90;;;;;7.20;96408.00;;;;8403031;28;20295;-76
2023/04/02 16:19:38;;;;;;;6.53;5.23;;;;;7.10;96401.00;;;;8402373;28;20641;-76
2023/04/02 16:23:43;;;;;;;6.43;4.50;;;;;7.10;96410.00;;;;8402897;28;20192;-77
2023/04/02 16:27:58;;;;;;;5.07;3.93;;;;;7.00;96422.00;;;;8402671;28;20272;-76
2023/04/02 16:32:09;;;;;;;5.87;4.83;;;;;6.90;96421.00;;;;8402050;28;20227;-76
2023/04/02 16:36:30;;;;;;;5.60;4.03;;;;;6.90;96437.00;;;;8402267;28;20710;-77
2023/04/02 16:40:40;;;;;;;2.63;2.47;;;;;6.80;96446.00;;;;8402487;28;20643;-77
2023/04/02 16:45:03;;;;;;;6.50;3.90;;;;;6.70;96454.00;;;;8402476;28;20517;-76
2023/04/02 16:49:19;;;;;;;3.40;3.13;;;;;6.60;96461.00;;;;8402096;28;20203;-76
2023/04/02 16:53:32;;;;;;;3.80;3.50;;;;;6.60;96473.00;;;;8401016;28;20211;-77
2023/04/02 16:57:41;;;;;;;3.70;2.77;;;;;6.50;96479.00;;;;8401717;28;20192;-77
2023/04/02 17:01:54;;;;;;;4.10;3.70;;;;;6.50;96488.00;;;;8401076;28;20204;-77
2023/04/02 17:06:06;;;;;;;4.87;3.73;;;;;6.40;96499.00;;;;8402347;28;20633;-77
2023/04/02 17:10:26;;;;;;;4.73;4.23;;;;;6.30;96503.00;;;;8401423;28;20207;-76
2023/04/02 17:14:34;;;;;;;5.20;4.20;;;;;6.20;96509.00;;;;8401267;28;20653;-77
2023/04/02 17:18:40;;;;;;;3.63;3.33;;;;;6.20;96517.00;;;;8384185;28;20636;-77
2023/04/02 17:22:47;;;;;;;6.40;3.80;;;;;6.10;96514.00;;;;8401324;28;20188;-76
2023/04/02 17:26:57;;;;;;;4.13;3.80;;;;;6.10;96529.00;;;;8400810;28;20533;-74
2023/04/02 17:31:04;;;;;;;3.60;3.30;;;;;6.00;96533.00;;;;8400721;28;20192;-76
2023/04/02 17:35:19;;;;;;;5.03;4.53;;;;;6.00;96547.00;;;;8399781;28;20219;-77
2023/04/02 17:39:31;;;;;;;5.73;4.70;;;;;5.90;96552.00;;;;8400378;28;20307;-77
2023/04/02 17:43:46;;;;;;;4.73;4.20;;;;;5.80;96564.00;;;;8400244;28;20187;-74
2023/04/02 17:48:01;;;;;;;10.53;5.07;;;;;5.70;96560.00;;;;8400810;28;20624;-77
2023/04/02 17:52:14;;;;;;;7.93;5.03;;;;;5.70;96581.00;;;;8400513;28;20195;-77
2023/04/02 17:56:35;;;;;;;4.27;3.90;;;;;5.60;96583.00;;;;8399678;28;20204;-76
2023/04/02 18:00:55;;;;;;;4.47;4.17;;;;;5.50;96590.00;;;;8400889;28;20554;-77
2023/04/02 18:05:13;;;;;;;9.23;5.10;;;;;5.40;96594.00;;;;8400505;28;20694;-77
2023/04/02 18:09:32;;;;;;;5.33;4.83;;;;;5.30;96608.00;;;;8400061;28;20192;-77
2023/04/02 18:13:39;;;;;;;7.23;5.37;;;;;5.30;96619.00;;;;8398901;28;20223;-77
2023/04/02 18:17:53;;;;;;;5.37;4.63;;;;;5.20;96616.00;;;;8399040;28;20200;-77
2023/04/02 18:22:02;;;;;;;6.33;5.10;;;;;5.10;96630.00;;;;8399235;28;20586;-78
2023/04/02 18:26:14;;;;;;;7.63;4.67;;;;;5.00;96633.00;;;;8381646;28;20195;-77
2023/04/02 18:30:27;;;;;;;9.37;5.87;;;;;4.90;96652.00;;;;8399714;28;20199;-75
2023/04/02 18:34:55;;;;;;;6.70;5.40;;;;;4.90;96652.00;;;;8399173;28;20220;-75
2023/04/02 18:39:06;;;;;;;6.80;5.23;;;;;4.90;96661.00;;;;8389537;28;20568;-75
2023/04/02 18:43:26;;;;;;;5.90;4.13;;;;;4.80;96666.00;;;;8398519;28;20494;-75
2023/04/02 18:47:39;;;;;;;6.17;4.90;;;;;4.80;96674.00;;;;8396163;28;20553;-76
2023/04/02 18:51:47;;;;;;;7.57;5.77;;;;;4.80;96683.00;;;;8381264;28;20195;-75
2023/04/02 18:55:54;;;;;;;6.57;5.87;;;;;4.80;96694.00;;;;8398426;28;20653;-75
2023/04/02 19:00:03;;;;;;;8.03;5.43;;;;;4.70;96698.00;;;;8381013;28;20204;-76
2023/04/02 19:04:16;;;;;;;6.17;4.33;;;;;4.70;96698.00;;;;8397669;28;20703;-75
2023/04/02 19:08:29;;;;;;;4.10;3.80;;;;;4.70;96703.00;;;;8397783;28;20203;-76
2023/04/02 19:12:33;;;;;;;5.30;3.83;;;;;4.70;96709.00;;;;8398240;28;20195;-76
2023/04/02 19:16:57;;;;;;;7.20;4.67;;;;;4.60;96713.00;;;;8397587;28;20541;-75
2023/04/02 19:21:13;;;;;;;7.57;5.23;;;;;4.60;96717.00;;;;8398091;28;20195;-75
2023/04/02 19:25:44;;;;;;;5.47;4.70;;;;;4.50;96718.00;;;;8397769;28;20202;-75
2023/04/02 19:29:59;;;;;;;5.63;4.23;;;;;4.60;96718.00;;;;8398224;28;20309;-75
2023/04/02 19:34:09;;;;;;;5.27;4.10;;;;;4.50;96741.00;;;;8397049;28;20667;-75
2023/04/02 19:38:28;;;;;;;5.33;4.27;;;;;4.50;96746.00;;;;8396856;28;20227;-75
2023/04/02 19:42:42;;;;;;;6.43;4.57;;;;;4.50;96743.00;;;;8379674;28;20196;-75
2023/04/02 19:46:50;;;;;;;6.07;5.00;;;;;4.50;96755.00;;;;8397968;28;20626;-75
2023/04/02 19:50:54;;;;;;;4.43;4.03;;;;;4.50;96761.00;;;;8380272;28;20224;-75
2023/04/02 19:54:58;;;;;;;5.10;4.60;;;;;4.50;96757.00;;;;8396807;28;20227;-75
2023/04/02 19:59:05;;;;;;;5.47;3.93;;;;;4.50;96765.00;;;;8397017;28;20249;-74
2023/04/02 20:03:20;;;;;;;4.80;4.40;;;;;4.50;96767.00;;;;8396965;28;20259;-74
2023/04/02 20:07:23;;;;;;;4.63;4.23;;;;;4.50;96767.00;;;;8396724;28;20203;-74
2023/04/02 20:11:27;;;;;;;4.83;3.67;;;;;4.60;96774.00;;;;8396919;28;20196;-74
2023/04/02 20:15:32;;;;;;;5.00;4.30;;;;;4.60;96785.00;;;;8397202;28;20226;-74
2023/04/02 20:19:35;;;;;;;4.77;4.07;;;;;4.60;96793.00;;;;8396333;28;20195;-75
2023/04/02 20:23:39;;;;;;;7.67;5.40;;;;;4.60;96800.00;;;;8396974;28;20227;-75
2023/04/02 20:27:44;;;;;;;6.67;5.40;;;;;4.70;96807.00;;;;8397396;28;20522;-74
2023/04/02 20:31:51;;;;;;;6.60;4.43;;;;;4.70;96802.00;;;;8397161;28;20191;-75
2023/04/02 20:36:02;;;;;;;6.73;4.10;;;;;4.70;96806.00;;;;8395366;28;20227;-72
2023/04/02 20:40:06;;;;;;;4.50;3.90;;;;;4.70;96805.00;;;;8379104;28;20204;-74
2023/04/02 20:44:10;;;;;;;4.87;4.30;;;;;4.70;96820.00;;;;8399770;28;20195;-75
2023/04/02 20:48:15;;;;;;;4.87;4.33;;;;;4.70;96825.00;;;;8383984;28;20284;-74
2023/04/02 20:52:18;;;;;;;4.03;3.67;;;;;4.70;96827.00;;;;8402363;28;20202;-75
2023/04/02 20:56:27;;;;;;;5.57;3.70;;;;;4.70;96844.00;;;;8401488;28;20220;-74
2023/04/02 21:00:30;;;;;;;6.53;4.07;;;;;4.70;96837.00;;;;8402087;28;20189;-74
2023/04/02 21:04:37;;;;;;;5.57;4.77;;;;;4.70;96848.00;;;;8402836;28;20223;-74
2023/04/02 21:08:40;;;;;;;8.73;4.27;;;;;4.70;96852.00;;;;8401426;28;20203;-73